• Join FlightAware (Why Join?)
  • Login
  • US Flag 
 
07:11AM EST


 

Airport Tracker/Info


-or-


 

Live Flight TrackerFlight Track Log ✈ PAG115 ✈ 24-Jun-2013 ✈ CYWG - CYCR

Flight Track Log - Related Links

Times and Time Zones

All times are in EDT time to prevent confusion due to time zone crossing. See the PAG115 flight status page for this flight to view local times or setup timezone preferences in your user account.

Time Position Orientation Groundspeed Altitude Reporting Facility
EDT Latitude Longitude Course Direction KTS MPH feet Rate Location/Type
03:38PM 49.9000 -97.2500 327° Northwest 130 150 1,400  Level Winnipeg Center
03:39PM 49.9333 -97.2833 327° Northwest 160 184 3,200 1,920 Climbing Winnipeg Center
03:40PM 49.9833 -97.3000 348° North 170 196 5,300 1,980 Climbing Winnipeg Center
03:41PM 50.0167 -97.3000 360° North 180 207 7,200 1,740 Climbing Winnipeg Center
03:42PM 50.0667 -97.3000 360° North 190 219 8,800 1,560 Climbing Winnipeg Center
03:43PM 50.1333 -97.3333 342° North 190 219 10,400 1,500 Climbing Winnipeg Center
03:44PM 50.1833 -97.3333 360° North 190 219 11,800 1,260 Climbing Winnipeg Center
03:45PM 50.2333 -97.3333 360° North 200 230 13,000 1,200 Climbing Winnipeg Center
03:46PM 50.3000 -97.3333 360° North 200 230 14,200 1,200 Climbing Winnipeg Center
03:47PM 50.3500 -97.3667 337° Northwest 200 230 15,400 1,020 Climbing Winnipeg Center
03:48PM 50.4167 -97.3667 360° North 210 242 16,300 1,020 Climbing Winnipeg Center
03:50PM 50.5201 -97.3755 North  Level Estimated
03:50PM 50.5167 -97.3667 North 200 230 18,600  Level Winnipeg Center
03:51PM 50.5833 -97.3667 360° North 200 230 19,400 660 Climbing Winnipeg Center
03:52PM 50.6333 -97.3667 360° North 210 242 20,000 300 Climbing Winnipeg Center
03:53PM 50.7000 -97.3833 351° North 230 265 20,100  Climbing Winnipeg Center
03:54PM 50.7667 -97.3833 360° North 240 276 20,000  Descending Winnipeg Center
03:55PM 50.8333 -97.3833 360° North 250 288 20,100  Climbing Winnipeg Center
03:56PM 50.9167 -97.3833 360° North 250 288 20,000 -60 Descending Winnipeg Center
03:57PM 50.9833 -97.3833 360° North 240 276 20,000  Level Winnipeg Center
03:58PM 51.0333 -97.4167 337° Northwest 240 276 20,000  Level Winnipeg Center
03:59PM 51.1167 -97.4167 360° North 240 276 20,000  Level Winnipeg Center
04:00PM 51.1667 -97.4167 360° North 240 276 20,000  Level Winnipeg Center
04:01PM 51.2333 -97.4167 360° North 240 276 20,000  Level Winnipeg Center
04:02PM 51.3000 -97.4167 360° North 240 276 20,000  Level Winnipeg Center
04:03PM 51.3667 -97.4167 360° North 240 276 20,000  Level Winnipeg Center
04:04PM 51.4333 -97.4500 343° North 230 265 20,000  Level Winnipeg Center
04:05PM 51.5000 -97.4500 360° North 230 265 20,000  Level Winnipeg Center
04:06PM 51.5667 -97.4500 360° North 240 276 20,100  Climbing Winnipeg Center
04:07PM 51.6333 -97.4500 360° North 240 276 20,100  Level Winnipeg Center
04:08PM 51.7000 -97.4833 343° North 230 265 20,100 -60 Level Winnipeg Center
04:09PM 51.7667 -97.4833 360° North 230 265 20,000 -60 Descending Winnipeg Center
04:10PM 51.8333 -97.4833 360° North 230 265 20,000  Level Winnipeg Center
04:11PM 51.9000 -97.4833 360° North 240 276 20,000  Level Winnipeg Center
04:12PM 51.9667 -97.4833 360° North 230 265 20,000  Level Winnipeg Center
04:13PM 52.0167 -97.4833 360° North 240 276 20,000  Level Winnipeg Center
04:14PM 52.0833 -97.5167 343° North 230 265 20,000  Level Winnipeg Center
04:15PM 52.1500 -97.5167 360° North 240 276 20,000  Level Winnipeg Center
04:16PM 52.2167 -97.5167 360° North 230 265 20,000  Level Winnipeg Center
04:17PM 52.2833 -97.5167 360° North 230 265 20,000  Level Winnipeg Center
04:18PM 52.3500 -97.5333 351° North 240 276 20,000  Level Winnipeg Center
04:19PM 52.4167 -97.5333 360° North 240 276 20,000  Level Winnipeg Center
04:20PM 52.4833 -97.5500 351° North 250 288 20,000  Level Winnipeg Center
04:21PM 52.5667 -97.5500 360° North 250 288 20,000  Level Winnipeg Center
04:22PM 52.6333 -97.5500 360° North 260 299 20,000  Level Winnipeg Center
04:23PM 52.7000 -97.5667 351° North 260 299 20,000  Level Winnipeg Center
04:24PM 52.7667 -97.5667 360° North 260 299 20,000  Level Winnipeg Center
04:25PM 52.8500 -97.5667 360° North 260 299 20,000  Level Winnipeg Center
04:26PM 52.9167 -97.5667 360° North 260 299 20,100  Climbing Winnipeg Center
04:27PM 53.0000 -97.5833 353° North 260 299 20,000  Descending Winnipeg Center
04:28PM 53.0667 -97.5833 360° North 260 299 20,100  Climbing Winnipeg Center
04:29PM 53.1333 -97.6000 351° North 260 299 20,100  Level Winnipeg Center
04:30PM 53.2000 -97.6000 360° North 260 299 20,100 -60 Level Winnipeg Center
04:31PM 53.2833 -97.6000 360° North 260 299 20,000 -120 Descending Winnipeg Center
04:32PM 53.3667 -97.6167 353° North 260 299 19,900  Descending Winnipeg Center
04:33PM 53.4333 -97.6333 352° North 260 299 20,000  Climbing Winnipeg Center
04:34PM 53.5167 -97.6333 360° North 260 299 20,000  Level Winnipeg Center
04:35PM 53.5833 -97.6333 360° North 260 299 20,100 -600 Climbing Winnipeg Center
04:36PM 53.6667 -97.6333 360° North 270 311 18,900 -1,560 Descending Winnipeg Center
04:37PM 53.7500 -97.6667 347° North 300 345 17,000 -1,680 Descending Winnipeg Center
04:38PM 53.8333 -97.6667 360° North 310 357 15,600 -1,500 Descending Winnipeg Center
04:39PM 53.9167 -97.6667 360° North 310 357 14,000 -1,620 Descending Winnipeg Center
04:40PM 54.0000 -97.7000 347° North 300 345 12,400 -1,560 Descending Winnipeg Center
04:41PM 54.0833 -97.7000 360° North 290 334 10,900 -1,500 Descending Winnipeg Center
04:42PM 54.1500 -97.7000 360° North 280 322 9,500 -1,560 Descending Winnipeg Center
04:43PM 54.2333 -97.7000 360° North 280 322 7,800 -1,800 Descending Winnipeg Center
04:44PM 54.3167 -97.7167 353° North 290 334 5,900 -1,680 Descending Winnipeg Center
04:45PM 54.3833 -97.7333 352° North 270 311 4,500 -1,440 Descending Winnipeg Center
04:47PM 54.4875 -97.7342 353° North  Level FlightAware Approximate
04:54PM 54.6000 -97.7500 North  Level FlightAware Approximate
04:55PM 54.6100 -97.7606 North  Level Estimated
04:56PM 54.6100 -97.7606 North  Level Estimated
04:57PM 54.6100 -97.7606 North  Level Estimated
04:58PM 54.6100 -97.7606 North  Level Estimated
04:59PM 54.6100 -97.7606 North  Level Estimated
05:00PM 54.6100 -97.7606 North  Level Estimated
05:01PM 54.6100 -97.7606 North  Level Estimated
05:02PM 54.6100 -97.7606 North  Level Estimated